Tiempo atmosférico en la estación meteorológica de Medina De Pomar, Burgos (580 m.)



Fecha
DESCASC
Temp. máxima en grados centígrados (hora)
DESCASC
Temp. mínima en grados centígrados (hora)
DESCASC
Temp. media en grados centígrados
DESCASC
Racha de viento máxima en m/sg (hora)
DESCASC
Velocidad máxima media en intervalos de 10 minutos(hora)
DESCASC
Precipitaciones diarias en mm
DESCASC
Precipitaciones de 00:00 a 06:00 en mm
DESCASC
Precipitaciones de 06:00 a 12:00 en mm
DESCASC
Precipitaciones de 12:00 a 18:00 en mm
DESCASC
Precipitaciones de 18:00 a 24:00 en mm
DESCASC
10-11-2019 7.9 (15:10) 2.7 (00:00) 5.3 10.56 (16:20) 4.17 (16:20) 30 7.8 13.8 5.4 3
09-11-2019 11.7 (15:20) 4.8 (00:00) 8.3 12.78 (13:50) 6.11 (14:00) 8.8 1.6 1.8 0 5.4
08-11-2019 7.9 (17:00) 3.1 (00:00) 5.5 13.89 (16:10) 5 (16:10) 22.6 2.8 6.2 13.6 0
07-11-2019 11.9 (12:40) 2.7 (00:00) 7.3 9.44 (03:00) 3.33 (08:30) 8.4 5.2 0 3.2 0
06-11-2019 14.7 (15:10) 7.6 (00:00) 11.1 10.56 (22:20) 3.61 (03:10) 1.4 0.8 0 0 0.6
05-11-2019 10.2 (15:50) 6.5 (00:00) 8.3 14.44 (16:40) 5 (16:40) 23.8 0 6.4 9 8.4
04-11-2019 17.8 (15:00) 6.6 (00:00) 12.2 17.78 (02:50) 6.39 (02:30) 0 0 0 0 0
03-11-2019 17 (15:40) 8.4 (00:00) 12.7 19.17 (02:20) 6.94 (03:40) 5.2 4.6 0 0 0.6
02-11-2019 17.6 (10:20) 13.7 (00:00) 15.7 18.89 (22:40) 6.67 (22:50) 0 0 0 0 0
01-11-2019 20.9 (13:10) 11.9 (00:00) 16.4 11.94 (22:40) 5 (23:50) 2 0 0 1.8 0.2
31-10-2019 21.1 (15:20) 10.4 (08:10) 15.8 6.11 (11:50) 2.5 (11:50) 0.4 0.4 0 0 0
30-10-2019 18.4 (12:40) 6.9 (00:00) 12.6 8.89 (13:00) 3.89 (16:30) 0 0 0 0 0
29-10-2019 22.4 (14:20) 8.7 (00:00) 15.5 18.89 (17:10) 3.89 (13:10) 0 0 0 0 0
28-10-2019 24.6 (13:50) 10.7 (00:00) 17.7 14.44 (16:50) 3.61 (14:20) 0 0 0 0 0
27-10-2019 19.6 (15:10) 6.1 (00:00) 12.9 14.44 (16:50) 3.06 (20:10) 0 0 0 0 0
26-10-2019 24.2 (16:00) 3.6 (00:00) 13.9 7.5 (15:00) 3.33 (15:30) 0 0 0 0 0
25-10-2019 20.7 (15:40) 8.1 (00:00) 14.4 8.33 (14:50) 4.17 (17:50) 0 0 0 0 0
24-10-2019 15.3 (18:50) 6.9 (00:00) 11.1 8.06 (00:40) 2.22 (00:10) 12.8 11.2 1 0.6 0
23-10-2019 15.1 (13:50) 8.9 (00:00) 12 9.72 (06:10) 4.44 (06:10) 9.8 0.8 0 3.8 5.2
22-10-2019 10.9 (14:20) 2 (00:00) 6.4 11.39 (20:00) 3.89 (20:10) 4.6 0 0 1.8 2.8
21-10-2019 14.3 (17:40) 1.8 (00:00) 8.1 5.56 (19:10) 1.94 (19:10) 0 0 0 0 0
20-10-2019 11.1 (00:00) 6.2 (00:00) 8.7 6.11 (17:40) 2.5 (12:00) 22.8 4 15.4 2.6 0.8
19-10-2019 17.9 (16:30) 11.1 (00:00) 14.5 12.78 (17:20) 4.44 (14:10) 10.8 0 0 0.2 10.6
18-10-2019 19.1 (14:00) 13 (00:00) 16.1 8.33 (17:20) 3.89 (17:20) 0 0 0 0 0
17-10-2019 22.1 (17:40) 13.1 (00:00) 17.6 10 (17:50) 4.17 (12:20) 0.6 0.4 0 0.2 0
16-10-2019 19.1 (17:40) 12.2 (00:00) 15.7 11.67 (14:20) 5.28 (15:10) 0.4 0 0 0 0.4
15-10-2019 17.3 (15:40) 6.3 (00:00) 11.8 9.72 (14:20) 3.89 (14:30) 3 2.8 0 0.2 0
14-10-2019 22 (06:20) 9.4 (00:00) 15.7 18.33 (12:30) 7.22 (16:20) 0.8 0 0.4 0.2 0.2

Gráficas

Temp. máximas Temp. mínimas Temp. medias Precipitaciones Rachas de viento máximas Velocidades máximas media en intervalos de 10 minutos

Datos horarios

Fecha y hora oficial Temperatura (ºC) Velocidad del viento (km/h) Dirección del viento Racha (km/h) Dirección de racha Precipitación (mm) Presión (hPa) Tendencia (hPa) Humedad (%)
2019-11-12 23:00:00 7.8 2 Este 9 Nordeste 0.6 939.8 -2.2 90
2019-11-12 22:00:00 7.8 4 Nordeste 8 Este 0.6 940.8 -1.8 88
2019-11-12 21:00:00 7.8 3 Sudeste 9 Este 0.6 941.3 -1.8 86
2019-11-12 20:00:00 7.9 2 Nordeste 8 Este 0.6 942 -1.3 85
2019-11-12 19:00:00 8.5 3 Sudeste 15 Sudoeste 0.4 942.6 -1.4 79
2019-11-12 18:00:00 9.5 5 Sudoeste 20 Sudoeste 0.2 943.1 -2 74
2019-11-12 17:00:00 10.7 3 Sur 13 Este 0 943.3 -2.7 71
2019-11-12 16:00:00 11.2 7 Este 13 Sudeste 0 944 -2.9 61
2019-11-12 15:00:00 11.1 4 Sur 20 Sudoeste 0 945.1 -3.1 56
2019-11-12 14:00:00 11.2 8 Oeste 20 Oeste 0 946 -2.4 59
2019-11-12 13:00:00 10.5 10 Oeste 22 Sudoeste 0 946.9 -1.7 64
2019-11-12 12:00:00 9.8 5 Noroeste 20 Oeste 0 948.2 -0.5 68
2019-11-12 11:00:00 9.4 4 Oeste 13 Oeste 0 948.4 0 68
2019-11-12 10:00:00 7.5 5 Oeste 13 Oeste 0 948.6 -0.1 78
2019-11-12 09:00:00 6.7 6 Oeste 12 Sudoeste 0 948.7 -0.2 80
2019-11-12 08:00:00 6.4 4 Noroeste 21 Oeste 0 948.4 -1 78
2019-11-12 07:00:00 5.8 5 Oeste 12 Oeste 0 948.7 -0.8 83
2019-11-12 06:00:00 5.7 4 Oeste 9 Oeste 0 948.9 -1.1 85
2019-11-12 05:00:00 6.1 2 Este 21 Oeste 0 949.4 -0.9 83
2019-11-12 04:00:00 6.1 6 Oeste 19 Oeste 0 949.5 -1.7 81
2019-11-12 03:00:00 5.1 3 Sudeste 10 Sur 0 950 -1.7 92
2019-11-12 02:00:00 4.2 6 Sudeste 10 Sudeste 0 950.3 -1.5 93
2019-11-12 01:00:00 -- -- -- -- -- -- -- -- --
2019-11-12 00:00:00 -- -- -- -- -- -- -- -- --
2019-11-11 23:00:00 -- -- -- -- -- -- -- -- --
2019-11-11 22:00:00 -- -- -- -- -- -- -- -- --
2019-11-11 21:00:00 5.7 4 Sur 7 Sur 0.2 952.1 1.1 91
2019-11-11 20:00:00 6.2 3 Norte 9 Norte 0.4 952 1.2 90
2019-11-11 19:00:00 6.5 6 Norte 19 Norte 0.6 951.5 1 85
2019-11-11 18:00:00 6.9 3 Norte 9 Oeste 0.2 951 1.1 87
2019-11-11 17:00:00 7.4 4 Noroeste 15 Noroeste 0.6 950.8 1.4 85
2019-11-11 16:00:00 7.8 3 Sudoeste 18 Norte 0.6 950.5 1.7 84
2019-11-11 15:00:00 8.6 5 Norte 26 Oeste 0 949.9 1.5 76
2019-11-11 14:00:00 9.2 8 Oeste 30 Oeste 0 949.4 1.4 71
2019-11-11 13:00:00 10.4 8 Oeste 42 Oeste 0 948.8 0.4 74
2019-11-11 12:00:00 9.1 9 Oeste 32 Sudoeste 0 948.4 0 84
2019-11-11 11:00:00 6.8 11 Sudoeste 24 Oeste 0.6 948 -0.3 89
2019-11-11 10:00:00 5.6 2 Sudoeste 10 Oeste 0.6 948.4 -0.1 91
2019-11-11 09:00:00 4.9 4 Oeste 15 Noroeste 0.2 948.4 -0.5 91
2019-11-11 08:00:00 4.8 5 Oeste 14 Oeste 0 948.3 -0.9 90
2019-11-11 07:00:00 4.6 2 Este 7 Sur 0 948.5 -1.2 91
2019-11-11 06:00:00 4.6 3 Sudeste 11 Sur 0 948.9 -1 91
2019-11-11 05:00:00 4.4 5 Sudeste 11 Sur 0 949.2 -1.1 92
2019-11-11 04:00:00 4.3 8 Sur 15 Sudeste 0 949.7 -0.6 92
2019-11-11 03:00:00 4.3 6 Sur 11 Sur 0 949.9 -1.1 92
2019-11-11 02:00:00 4.3 4 Sur 12 Sur 0 950.3 -0.2 92
2019-11-11 01:00:00 4.5 6 Sur 12 Sudeste 0.6 950.3 -0.4 92
2019-11-11 00:00:00 4.7 0 Calma 6 Este 0.2 951 0.7 91
2019-11-10 23:00:00 4.6 5 Sur 10 Sudeste 0 950.5 0.2 92
2019-11-10 22:00:00 4.4 7 Sur 12 Sur 0.6 950.7 0.2 91
2019-11-10 21:00:00 4.2 6 Sur 15 Sudeste 0.6 950.3 1 91
2019-11-10 20:00:00 4.4 3 Este 9 Oeste 0.8 950.3 0.9 90
2019-11-10 19:00:00 5 4 Oeste 11 Oeste 0.8 950.5 1.9 88
2019-11-10 18:00:00 5.3 3 Sudoeste 19 Norte 0.8 949.3 1.2 86
2019-11-10 17:00:00 5.8 3 Noroeste 38 Noroeste 1 949.4 0.6 82
2019-11-10 16:00:00 6.8 5 Sudoeste 21 Oeste 0.4 948.6 -0.5 81
2019-11-10 15:00:00 7.6 10 Oeste 23 Noroeste 0.2 948.1 -1 78
2019-11-10 14:00:00 5.6 7 Oeste 17 Oeste 1 948.8 -0.1 85
2019-11-10 13:00:00 4.8 3 Oeste 15 Sudoeste 2 949.1 0.5 88
2019-11-10 12:00:00 2.9 9 Sudoeste 25 Sudoeste 1.8 949.1 0.3 90
2019-11-10 11:00:00 3.5 10 Oeste 23 Sudoeste 1.8 948.9 0.3 89
2019-11-10 10:00:00 3.8 6 Oeste 20 Sudoeste 2.6 948.6 0.2 90
2019-11-10 09:00:00 2.8 3 Oeste 17 Sur 3.2 948.8 0.2 90
2019-11-10 08:00:00 2.9 6 Sudoeste 22 Oeste 3 948.6 0.1 89
2019-11-10 07:00:00 4.3 9 Oeste 27 Oeste 1.4 948.4 -1 85
2019-11-10 06:00:00 4.1 3 Oeste 24 Oeste 1.2 948.6 -1 88
2019-11-10 05:00:00 3.9 3 Sur 21 Sudeste 0.6 948.5 -0.9 87
2019-11-10 04:00:00 3.9 9 Oeste 23 Oeste 1.8 949.4 -0.2 87
2019-11-10 03:00:00 4.1 4 Oeste 28 Oeste 1.2 949.6 0.1 87
2019-11-10 02:00:00 4.3 4 Oeste 14 Sur 0.8 949.4 0.4 88
2019-11-10 01:00:00 4.4 2 Oeste 19 Nordeste 2.2 949.6 0.8 87
2019-11-10 00:00:00 4.8 5 Oeste 22 Oeste 1.2 949.5 1.1 87
2019-11-09 23:00:00 5.5 9 Oeste 26 Noroeste 1 949 0.7 85
2019-11-09 22:00:00 6 2 Sudoeste 13 Noroeste 0.4 948.8 1.5 87
2019-11-09 21:00:00 6.4 5 Noroeste 37 Noroeste 2.8 948.4 1.1 82
2019-11-09 20:00:00 8.7 10 Noroeste 33 Norte 0 948.3 1.1 75
2019-11-09 19:00:00 9.2 0 Calma 11 Oeste 0 947.3 -0.2 80
2019-11-09 18:00:00 9.6 0 Calma 17 Oeste 0 947.3 0 75
2019-11-09 17:00:00 9.6 6 Sudoeste 17 Oeste 0 947.2 -0.9 75
2019-11-09 16:00:00 9.9 10 Oeste 38 Sudoeste 0 947.5 -1.4 73
2019-11-09 15:00:00 11.1 20 Sudoeste 39 Oeste 0 947.3 -2.9 66
2019-11-09 14:00:00 9.8 22 Oeste 46 Sudoeste 0 948.1 -2.8 69
2019-11-09 13:00:00 9.6 20 Oeste 39 Oeste 0 948.9 -2 72
2019-11-09 12:00:00 6.8 8 Oeste 23 Noroeste 1.2 950.2 -0.8 80
2019-11-09 11:00:00 6.4 8 Oeste 27 Sudoeste 0.6 950.9 -0.2 80
2019-11-09 10:00:00 6.7 6 Oeste 18 Oeste 0 950.9 -0.7 75
2019-11-09 09:00:00 6 3 Sur 8 Oeste 0 951 -0.5 81
2019-11-09 08:00:00 5.5 2 Noroeste 14 Sudoeste 0 951.1 -0.1 86
2019-11-09 07:00:00 5.4 5 Sudoeste 13 Oeste 0 951.6 0.2 86
2019-11-09 06:00:00 5.5 5 Sudoeste 18 Oeste 0 951.5 0.3 83
2019-11-09 05:00:00 5.7 4 Oeste 17 Oeste 0 951.2 -0.2 83
2019-11-09 04:00:00 5.7 4 Oeste 22 Oeste 0.8 951.4 -0.5 85
2019-11-09 03:00:00 6 7 Oeste 23 Sudoeste 0.2 951.2 -0.5 85
2019-11-09 02:00:00 6.3 5 Oeste 22 Sudoeste 0 951.4 0 85
2019-11-09 01:00:00 6 4 Oeste 17 Sudoeste 0.6 951.9 1 86
2019-11-09 00:00:00 6.3 6 Oeste 22 Noroeste 0 951.7 1.3 81
2019-11-08 23:00:00 6.8 6 Oeste 23 Noroeste 0 951.4 1.6 77
2019-11-08 22:00:00 7 4 Oeste 21 Oeste 0 950.9 1.5 71
2019-11-08 21:00:00 7.1 7 Oeste 31 Noroeste 0 950.4 1.9 70
2019-11-08 20:00:00 7.1 10 Oeste 42 Oeste 0 949.8 2.6 71
2019-11-08 19:00:00 7 10 Noroeste 45 Oeste 0 949.4 2 72
2019-11-08 18:00:00 6.9 9 Noroeste 45 Norte 0.6 948.5 2.1 73
2019-11-08 17:00:00 7.9 12 Noroeste 50 Oeste 1 947.2 1.3 75
2019-11-08 16:00:00 5.9 14 Noroeste 45 Noroeste 3 947.4 1.4 84
2019-11-08 15:00:00 5.9 13 Noroeste 39 Noroeste 2.8 946.4 0.9 84
2019-11-08 14:00:00 5.2 10 Noroeste 34 Oeste 3 945.9 0.9 86
2019-11-08 13:00:00 5.1 13 Oeste 44 Noroeste 3.2 946 0.8 84
2019-11-08 12:00:00 5.5 13 Oeste 36 Oeste 1 945.5 1.1 81
2019-11-08 11:00:00 5.4 13 Oeste 30 Oeste 1.4 945 1.6 82
2019-11-08 10:00:00 4.7 13 Oeste 36 Oeste 1.4 945.2 2.3 83
2019-11-08 09:00:00 4.5 9 Oeste 40 Oeste 2 944.4 1.5 83
2019-11-08 08:00:00 3.9 8 Oeste 25 Sudoeste 0 943.4 0.8 82
2019-11-08 07:00:00 3.9 6 Oeste 21 Oeste 0.4 942.9 0.5 84
2019-11-08 06:00:00 3.4 3 Sudoeste 19 Oeste 1 942.9 0.8 86
2019-11-08 05:00:00 3.1 8 Oeste 28 Oeste 0.8 942.6 0.7 85
2019-11-08 04:00:00 3.1 3 Norte 22 Oeste 0.6 942.4 0.6 85
2019-11-08 03:00:00 3.5 4 Oeste 26 Sudoeste 0.4 942.1 0.2 82
2019-11-08 02:00:00 4.3 9 Oeste 26 Sudoeste 0 941.9 -0.1 73
2019-11-08 01:00:00 4.1 3 Noroeste 15 Oeste 0 941.8 -0.1 73
2019-11-08 00:00:00 3.9 5 Oeste 16 Oeste 0 941.9 0.4 76
2019-11-07 23:00:00 3.4 5 Sur 9 Sur 0 942 0.1 89
2019-11-07 22:00:00 3.9 2 Sudoeste 9 Sur 0 941.9 0 87
2019-11-07 21:00:00 4 2 Este 4 Sudeste 0 941.5 -0.1 87
2019-11-07 20:00:00 4.2 0 Calma 10 Oeste 0 941.9 0.5 84
2019-11-07 19:00:00 5.4 2 Noroeste 7 Norte 0 941.9 0.6 82
2019-11-07 18:00:00 6.2 2 Norte 11 Noroeste 0.2 941.6 0.5 82
2019-11-07 17:00:00 6.7 3 Oeste 24 Norte 0 941.4 -0.3 79
2019-11-07 16:00:00 7.4 8 Noroeste 22 Noroeste 1.6 941.3 -1.4 75
2019-11-07 15:00:00 9.2 4 Sudoeste 10 Este 0.2 941.1 -2.2 68
2019-11-07 14:00:00 9.6 5 Este 13 Norte 1 941.7 -1.7 68
2019-11-07 13:00:00 9.8 5 Noroeste 14 Noroeste 0.2 942.7 -1 61
2019-11-07 12:00:00 11.5 6 Oeste 24 Oeste 0 943.3 0 51
2019-11-07 11:00:00 9.5 9 Oeste 29 Oeste 0 943.4 0.9 59
2019-11-07 10:00:00 7.4 9 Noroeste 30 Oeste 0 943.7 1.7 69
2019-11-07 09:00:00 7.3 9 Noroeste 27 Oeste 0 943.3 1.1 69
2019-11-07 08:00:00 7.4 5 Oeste 26 Oeste 0 942.5 0.6 71
2019-11-07 07:00:00 7.6 7 Noroeste 31 Noroeste 0 942 -0.2 72
2019-11-07 06:00:00 8.1 11 Noroeste 27 Noroeste 0 942.2 0.1 75
2019-11-07 05:00:00 8.4 8 Noroeste 26 Noroeste 0.4 941.9 -0.5 78
2019-11-07 04:00:00 8.5 7 Noroeste 32 Noroeste 0.2 942.2 -0.2 78
2019-11-07 03:00:00 9 11 Noroeste 34 Noroeste 0.8 942.1 0.3 79
2019-11-07 02:00:00 10 5 Noroeste 16 Norte 3.8 942.4 0 88
2019-11-07 01:00:00 11.1 5 Oeste 21 Sudoeste 0 942.4 -0.5 78
2019-11-07 00:00:00 11.1 13 Oeste 28 Sudoeste 0 941.8 -1.4 75
2019-11-06 23:00:00 11.1 7 Oeste 38 Oeste 0.2 942.4 -1.3 75
2019-11-06 22:00:00 10.8 6 Oeste 26 Oeste 0.4 942.9 -1.1 77
2019-11-06 21:00:00 11.6 11 Oeste 28 Oeste 0 943.2 -1.1 67
2019-11-06 20:00:00 11.6 10 Sudoeste 32 Oeste 0 943.7 -1 64
2019-11-06 19:00:00 11.2 0 Calma 10 Sudoeste 0 944 -1.2 67
2019-11-06 18:00:00 12 3 Sudoeste 14 Sudoeste 0 944.3 -1.5 62
2019-11-06 17:00:00 13 10 Oeste 23 Sudoeste 0 944.7 -1.9 53
2019-11-06 16:00:00 14.3 3 Sur 12 Este 0 945.2 -2.4 53
2019-11-06 15:00:00 14.2 6 Sudeste 19 Sudoeste 0 945.8 -2.4 54
2019-11-06 14:00:00 11.8 7 Oeste 19 Sudoeste 0 946.6 -1.8 61
2019-11-06 13:00:00 10.2 6 Oeste 18 Oeste 0 947.6 -0.9 68
2019-11-06 12:00:00 9.5 6 Oeste 15 Oeste 0 948.2 -0.2 75
2019-11-06 11:00:00 9.1 2 Noroeste 5 Este 0 948.4 0.4 76
2019-11-06 10:00:00 8.5 0 Calma 10 Sudeste 0 948.5 0.6 77
2019-11-06 09:00:00 8.1 5 Norte 12 Norte 0 948.4 1 77
2019-11-06 08:00:00 7.9 5 Noroeste 29 Oeste 0 948 0.5 75
2019-11-06 07:00:00 8.1 8 Oeste 19 Sudoeste 0 947.9 0.4 82
2019-11-06 06:00:00 7.9 8 Oeste 28 Oeste 0.2 947.4 0 82
2019-11-06 05:00:00 8.2 8 Oeste 28 Oeste 0.2 947.5 0.6 82
2019-11-06 04:00:00 8.3 9 Oeste 33 Sudoeste 0 947.5 0.8 81
2019-11-06 03:00:00 8.3 6 Oeste 26 Oeste 0.2 947.4 0.7 83
2019-11-06 02:00:00 8.6 8 Noroeste 25 Norte 0.2 946.9 0.8 81
2019-11-06 01:00:00 8.5 6 Noroeste 19 Noroeste 0 946.7 1 79
2019-11-06 00:00:00 8.4 5 Oeste 20 Noroeste 0.8 946.7 1.6 85
2019-11-05 23:00:00 8.5 5 Noroeste 22 Noroeste 0.2 946.1 0.8 85
2019-11-05 22:00:00 8.6 7 Noroeste 30 Oeste 0.6 945.7 1.3 86
2019-11-05 21:00:00 7.5 2 Sudoeste 15 Noroeste 1.8 945.1 1.3 89
2019-11-05 20:00:00 7.4 4 Norte 33 Noroeste 2.2 945.3 2.5 88
2019-11-05 19:00:00 7.7 8 Oeste 36 Oeste 2.8 944.4 2.4 87
2019-11-05 18:00:00 7.8 10 Oeste 27 Sudoeste 2.8 943.8 2.2 86
2019-11-05 17:00:00 8.2 12 Noroeste 52 Noroeste 1.8 942.8 1.5 80
2019-11-05 16:00:00 9.2 18 Oeste 43 Oeste 0.8 942 0.7 76
2019-11-05 15:00:00 9.5 6 Oeste 22 Sudoeste 1.2 941.6 0.2 81
2019-11-05 14:00:00 8 9 Oeste 30 Sudoeste 1.4 941.3 0.4 82
2019-11-05 13:00:00 8.2 15 Oeste 33 Sudoeste 1 941.3 1.2 79
2019-11-05 12:00:00 7.6 4 Noroeste 23 Sudoeste 2.2 941.4 1.9 85
2019-11-05 11:00:00 6.7 3 Noroeste 33 Sudoeste 4 940.9 2.7 85
2019-11-05 10:00:00 7.9 15 Sudoeste 31 Sudoeste 0.2 940.1 2 75
2019-11-05 09:00:00 7.7 3 Norte 28 Sudoeste 0 939.5 1.6 71
2019-11-05 08:00:00 7.4 9 Oeste 28 Oeste 0 938.2 0.8 68
2019-11-05 07:00:00 7.4 13 Oeste 30 Sudoeste 0 938.1 0.7 68
2019-11-05 06:00:00 7.6 15 Oeste 33 Sudoeste 0 937.9 0.3 67
2019-11-05 05:00:00 7.7 14 Oeste 34 Sudoeste 0 937.4 -0.3 67
2019-11-05 04:00:00 8.2 13 Oeste 31 Oeste 0 937.4 -0.5 65
2019-11-05 03:00:00 8 13 Sudoeste 32 Sudoeste 0 937.6 -0.3 66
2019-11-05 02:00:00 7.1 8 Oeste 19 Noroeste 0 937.7 -0.1 69
2019-11-05 01:00:00 7.6 3 Oeste 18 Oeste 0 937.9 0.4 66
2019-11-05 00:00:00 8.4 6 Sudoeste 17 Sudoeste 0 937.9 0.4 64
2019-11-04 23:00:00 7.4 3 Sudoeste 15 Sudoeste 0 937.8 0.5 73
2019-11-04 22:00:00 6.6 4 Sudoeste 13 Sur 0 937.5 0.4 83
2019-11-04 21:00:00 8 4 Oeste 11 Norte 0 937.5 1.1 78
2019-11-04 20:00:00 9.8 6 Norte 13 Nordeste 0 937.3 0.8 69
2019-11-04 19:00:00 10.2 6 Nordeste 19 Nordeste 0 937.1 0.8 69
2019-11-04 18:00:00 11.4 10 Nordeste 24 Nordeste 0 936.4 0.6 63
2019-11-04 17:00:00 13.2 9 Norte 27 Nordeste 0 936.5 0.5 63
2019-11-04 16:00:00 14.6 10 Norte 41 Sudoeste 0 936.3 -0.1 60
2019-11-04 15:00:00 17.8 18 Sudoeste 50 Sudoeste 0 935.8 -1 47
2019-11-04 14:00:00 17.3 20 Sudoeste 46 Oeste 0 936 -0.9 51
2019-11-04 13:00:00 16.4 12 Sudoeste 54 Sudoeste 0 936.4 -0.8 64
2019-11-04 12:00:00 17.4 23 Sudoeste 58 Oeste 0 936.8 -0.4 58
2019-11-04 11:00:00 15.4 21 Sudoeste 57 Sudoeste 0 936.9 -0.4 65
2019-11-04 10:00:00 15 19 Sudoeste 54 Sudoeste 0 937.2 -0.2 65
2019-11-04 09:00:00 14.2 17 Sudoeste 48 Sur 0 937.2 -1.1 67
2019-11-04 08:00:00 14.1 17 Sudoeste 56 Sudoeste 0 937.3 -0.1 67
2019-11-04 07:00:00 14 22 Sudoeste 61 Sudoeste 0 937.4 0.2 67
2019-11-04 06:00:00 14 14 Sudoeste 42 Sudoeste 0 938.3 0.7 67
2019-11-04 05:00:00 14.2 17 Sudoeste 59 Sudoeste 0 937.4 -0.7 67
2019-11-04 04:00:00 14.7 22 Sudoeste 58 Sudoeste 0 937.2 -1.4 65
2019-11-04 03:00:00 14.9 21 Sudoeste 64 Sudoeste 0 937.6 -1.5 66
2019-11-04 02:00:00 14.7 15 Sudoeste 45 Sudoeste 0 938.1 -1.7 68
2019-11-04 01:00:00 13.8 14 Sudoeste 47 Sudoeste 0 938.6 -1.2 74
2019-11-04 00:00:00 13.8 13 Sudoeste 42 Sudoeste 0 939.1 -0.9 72
2019-11-03 23:00:00 13.5 15 Sudoeste 38 Sudoeste 0 939.8 -0.4 73
2019-11-03 22:00:00 13.2 16 Sudoeste 46 Sudoeste 0 939.8 -0.3 73
2019-11-03 21:00:00 12.7 12 Oeste 36 Oeste 0.4 940 0.5 75
2019-11-03 20:00:00 13.1 12 Oeste 30 Sudoeste 0.2 940.2 0.3 66
2019-11-03 19:00:00 13.5 7 Oeste 19 Oeste 0 940.1 1.2 58
2019-11-03 18:00:00 14.2 7 Sudoeste 24 Sudoeste 0 939.5 1 54
2019-11-03 17:00:00 14.8 8 Sudoeste 23 Sudoeste 0 939.9 1.1 51
2019-11-03 16:00:00 16.4 4 Noroeste 19 Oeste 0 938.9 0.3 38
2019-11-03 15:00:00 16.7 4 Sur 19 Oeste 0 938.5 -0.1 38
2019-11-03 14:00:00 15.7 6 Noroeste 21 Noroeste 0 938.8 1.3 41
2019-11-03 13:00:00 14.2 5 Noroeste 29 Oeste 0 938.6 1.9 49
2019-11-03 12:00:00 13.4 13 Oeste 39 Sudoeste 0 938.6 2.6 50
2019-11-03 11:00:00 11.9 16 Oeste 56 Oeste 0 937.5 3 51
2019-11-03 10:00:00 10.9 18 Oeste 64 Oeste 0 936.7 2.9 56
2019-11-03 09:00:00 9.1 18 Oeste 48 Noroeste 0 936 4.1 61
2019-11-03 08:00:00 8.6 14 Oeste 44 Oeste 0 934.5 4.5 61
2019-11-03 07:00:00 8.8 16 Noroeste 64 Noroeste 0 933.8 5.3 68
2019-11-03 06:00:00 9.3 15 Noroeste 46 Noroeste 0.4 931.9 3.6 76
2019-11-03 05:00:00 10.3 9 Noroeste 39 Oeste 4.2 930 0.3 82
2019-11-03 04:00:00 13.1 24 Sudoeste 63 Sudoeste 0 928.5 -2.6 69
2019-11-03 03:00:00 13.1 23 Sudoeste 69 Sudoeste 0 928.3 -3.9 68
2019-11-03 02:00:00 13.3 21 Sudoeste 68 Sudoeste 0 929.7 -3.3 65
2019-11-03 01:00:00 13.2 18 Sudoeste 55 Sudoeste 0 931.1 -2.5 67
2019-11-03 00:00:00 13.7 17 Sudoeste 50 Sudoeste 0 932.2 -2.3 62
2019-11-02 23:00:00 13.8 16 Sudoeste 68 Sudoeste 0 933 -2.3 62
2019-11-02 22:00:00 14 17 Sudoeste 49 Sudoeste 0 933.6 -2.2 59
2019-11-02 21:00:00 14.3 16 Sudoeste 45 Oeste 0 934.5 -2.2 57
2019-11-02 20:00:00 14.5 16 Sudoeste 37 Oeste 0 935.3 -2.2 59
2019-11-02 19:00:00 14.7 8 Sudoeste 32 Sudoeste 0 935.8 -2.1 62
2019-11-02 18:00:00 15.3 14 Sudoeste 35 Sudoeste 0 936.7 -1.8 62
2019-11-02 17:00:00 15.5 8 Sudoeste 24 Oeste 0 937.5 -0.9 60
2019-11-02 16:00:00 16.1 10 Sudoeste 33 Oeste 0 937.9 -1.3 57
2019-11-02 15:00:00 16.6 8 Oeste 26 Oeste 0 938.5 -1 53
2019-11-02 14:00:00 16.9 10 Sudoeste 30 Oeste 0 938.4 -1.9 49
2019-11-02 13:00:00 17.3 9 Oeste 26 Oeste 0 939.2 -1.4 51
2019-11-02 12:00:00 17.4 9 Sudoeste 23 Sudoeste 0 939.5 -1.4 55
2019-11-02 11:00:00 17.4 8 Sudoeste 32 Sudoeste 0 940.3 -0.5 62
2019-11-02 10:00:00 17.3 16 Oeste 36 Oeste 0 940.6 -0.4 64
2019-11-02 09:00:00 15.7 9 Oeste 32 Sudoeste 0 940.9 0 73
2019-11-02 08:00:00 15.7 11 Sudoeste 28 Sudoeste 0 940.8 -0.3 72
2019-11-02 07:00:00 15.9 11 Oeste 37 Oeste 0 941 -0.9 71
2019-11-02 06:00:00 15.9 7 Oeste 30 Oeste 0 940.9 -1.8 69
2019-11-02 05:00:00 16 9 Oeste 33 Oeste 0 941.1 -2.2 69
2019-11-02 04:00:00 15.9 9 Sudoeste 33 Oeste 0 941.9 -1.7 70
2019-11-02 03:00:00 15.7 9 Sudoeste 27 Sudoeste 0 942.7 -1.5 73
2019-11-02 02:00:00 15.5 11 Oeste 24 Oeste 0 943.3 -1.2 73
2019-11-02 01:00:00 16.2 12 Oeste 45 Sudoeste 0 943.6 -1.3 69
2019-11-02 00:00:00 16.7 16 Sudoeste 42 Sudoeste 0 944.2 -0.9 68
2019-11-01 23:00:00 17 13 Sudoeste 43 Oeste 0 944.5 -0.6 67
2019-11-01 22:00:00 16.3 6 Oeste 27 Sudoeste 0 944.9 -0.4 69
2019-11-01 21:00:00 15.7 5 Sudoeste 14 Oeste 0 945.1 -0.1 73
2019-11-01 20:00:00 16.5 3 Este 24 Sudoeste 0 945.1 -0.8 74
2019-11-01 19:00:00 16.9 5 Sudoeste 17 Sudoeste 0.2 945.3 -0.9 77
2019-11-01 18:00:00 17.7 3 Sudeste 11 Nordeste 0 945.2 -1.4 83
2019-11-01 17:00:00 18.1 4 Nordeste 15 Sudoeste 0.8 945.9 -1.6 79
2019-11-01 16:00:00 18 3 Oeste 21 Sudoeste 1 946.2 -2.2 83
2019-11-01 15:00:00 19.3 6 Sudoeste 26 Sudoeste 0 946.6 -3.1 72
2019-11-01 14:00:00 19.7 11 Oeste 40 Sudoeste 0 947.5 -3 67
2019-11-01 13:00:00 20.6 17 Sudoeste 35 Sudoeste 0 948.4 -2.6 62
2019-11-01 12:00:00 19.7 9 Sudoeste 32 Sudoeste 0 949.7 -1.1 65
2019-11-01 11:00:00 18.7 9 Sudoeste 23 Sudoeste 0 950.5 -0.6 68
2019-11-01 10:00:00 17.2 6 Oeste 18 Sudoeste 0 951 -0.3 79
2019-11-01 09:00:00 14 3 Sudeste 8 Sur 0 950.8 -0.7 91
2019-11-01 08:00:00 12.6 4 Norte 10 Nordeste 0 951.1 -0.5 93
2019-11-01 07:00:00 11.9 2 Nordeste 8 Nordeste 0 951.3 -0.9 92
2019-11-01 06:00:00 12.5 4 Nordeste 8 Norte 0 951.5 -1.2 92
2019-11-01 05:00:00 13.1 3 Nordeste 6 Norte 0 951.6 -1.6 91
2019-11-01 04:00:00 13.3 2 Este 8 Sur 0 952.2 -1.1 92
2019-11-01 03:00:00 13 0 Calma 7 Nordeste 0 952.7 -0.8 90
2019-11-01 02:00:00 12.5 4 Nordeste 8 Nordeste 0 953.2 -0.8 88
2019-11-01 01:00:00 13.2 3 Nordeste 7 Nordeste 0 953.3 -1.1 87
2019-11-01 00:00:00 13.8 2 Oeste 11 Nordeste 0 953.5 -1 83
2019-10-31 23:00:00 14.2 4 Nordeste 9 Nordeste 0 954 -0.9 84
2019-10-31 22:00:00 15.1 3 Nordeste 7 Nordeste 0 954.4 -0.4 78
2019-10-31 21:00:00 15.7 0 Calma 5 Nordeste 0 954.5 -0.2 76
2019-10-31 20:00:00 16.1 2 Noroeste 7 Norte 0 954.9 0.4 74
2019-10-31 19:00:00 17.1 2 Norte 6 Nordeste 0 954.8 0.1 69
2019-10-31 18:00:00 18.4 3 Norte 9 Norte 0 954.7 -0.1 61
2019-10-31 17:00:00 20.1 0 Calma 9 Sur 0 954.5 -0.7 55
2019-10-31 16:00:00 20.9 5 Sudoeste 12 Oeste 0 954.7 -1.1 51
2019-10-31 15:00:00 20.4 5 Sudoeste 13 Sudoeste 0 954.8 -1.4 53
2019-10-31 14:00:00 20.6 6 Sudoeste 18 Sudoeste 0 955.2 -1.3 52
2019-10-31 13:00:00 18.8 5 Noroeste 22 Noroeste 0 955.8 -0.7 58
2019-10-31 12:00:00 18.4 6 Noroeste 22 Oeste 0 956.2 0.1 61
2019-10-31 11:00:00 17.1 3 Noroeste 7 Noroeste 0 956.5 1.1 72
2019-10-31 10:00:00 14.7 0 Calma 6 Este 0 956.5 1.6 87
2019-10-31 09:00:00 11.4 3 Sudeste 7 Sur 0 956.1 1.3 94
2019-10-31 08:00:00 10.5 3 Sudeste 10 Sudeste 0 955.4 0.8 93
2019-10-31 07:00:00 11.3 3 Norte 4 Norte 0 954.9 0.5 94
2019-10-31 06:00:00 10.8 0 Calma 6 Sudoeste 0 954.8 0.4 93
2019-10-31 05:00:00 11.2 2 Este 5 Sudeste 0 954.6 0.4 92
2019-10-31 04:00:00 12.4 4 Sur 7 Sur 0 954.4 0 92
2019-10-31 03:00:00 13.2 5 Sur 8 Sur 0 954.4 -0.2 91
2019-10-31 02:00:00 13.8 0 Calma 4 Sudeste 0 954.2 -0.2 91
2019-10-31 01:00:00 14.1 5 Sudeste 11 Sudeste 0.4 954.4 0.3 90
2019-10-31 00:00:00 14.7 3 Oeste 22 Norte 0 954.6 0.7 87
2019-10-30 23:00:00 16 0 Calma 14 Sudoeste 0 954.4 0.5 79
2019-10-30 22:00:00 16.4 6 Sudoeste 15 Oeste 0 954.1 0.6 75
2019-10-30 21:00:00 16.4 6 Oeste 17 Sudoeste 0 953.9 0.8 74
2019-10-30 20:00:00 16.4 2 Sudoeste 14 Oeste 0 953.9 0.9 72
2019-10-30 19:00:00 16.6 4 Norte 25 Sudoeste 0 953.5 0.6 70
2019-10-30 18:00:00 17 5 Oeste 24 Oeste 0 953.1 0.1 68
2019-10-30 17:00:00 17.7 7 Sudoeste 30 Sudoeste 0 953 -0.2 63
2019-10-30 16:00:00 17.9 12 Sudoeste 29 Sudoeste 0 952.9 -0.6 63
2019-10-30 15:00:00 18 9 Sudoeste 27 Sur 0 953 -1 64
2019-10-30 14:00:00 18 10 Sudoeste 28 Oeste 0 953.2 -1.3 64
2019-10-30 13:00:00 18.2 13 Sudoeste 32 Sudoeste 0 953.5 -1 63
2019-10-30 12:00:00 17.2 4 Este 13 Este 0 954 -0.5 71
2019-10-30 11:00:00 14 3 Oeste 6 Oeste 0 954.5 0.4 79
2019-10-30 10:00:00 11.4 2 Oeste 13 Sudeste 0 954.5 0.7 88
2019-10-30 09:00:00 9.8 2 Nordeste 6 Nordeste 0 954.5 0.6 92
2019-10-30 08:00:00 8.7 0 Calma 10 Nordeste 0 954.1 0.6 93
2019-10-30 07:00:00 8.3 4 Norte 8 Nordeste 0 953.8 0.1 93
2019-10-30 06:00:00 7.2 0 Calma 6 Nordeste 0 953.9 0 93
2019-10-30 05:00:00 7.2 0 Calma 5 Nordeste 0 953.5 -0.5 92
2019-10-30 04:00:00 7.8 2 Este 6 Sudoeste 0 953.7 -0.2 92
2019-10-30 03:00:00 8 0 Calma 5 Nordeste 0 953.9 0.2 92
2019-10-30 02:00:00 7.8 0 Calma 5 Nordeste 0 954 0.3 91
2019-10-30 01:00:00 8.2 2 Oeste 6 Este 0 953.9 0.4 91
2019-10-30 00:00:00 8.7 2 Nordeste 6 Norte 0 953.7 0.8 89
2019-10-29 23:00:00 9.7 3 Nordeste 6 Nordeste 0 953.7 1.2 89
2019-10-29 22:00:00 10.7 2 Oeste 9 Nordeste 0 953.5 1.4 86
2019-10-29 21:00:00 11.9 5 Norte 10 Norte 0 952.9 1.4 83
2019-10-29 20:00:00 13.4 2 Nordeste 9 Nordeste 0 952.5 1.4 77
2019-10-29 19:00:00 15.4 4 Sur 13 Sur 0 952.1 1.1 68
2019-10-29 18:00:00 18.4 5 Sur 68 Noroeste 0 951.5 1 59
2019-10-29 17:00:00 20.5 10 Sudoeste 22 Sudoeste 0 951.1 0.4 51
2019-10-29 16:00:00 21.7 10 Sudoeste 27 Sudoeste 0 951 -0.1 47
2019-10-29 15:00:00 21.8 10 Sudoeste 27 Sudoeste 0 950.5 -0.8 47
2019-10-29 14:00:00 22 8 Sudoeste 29 Sudoeste 0 950.7 -0.6 48
2019-10-29 13:00:00 20.7 10 Oeste 26 Sudoeste 0 951.1 0.2 51
2019-10-29 12:00:00 20 9 Oeste 21 Noroeste 0 951.3 0.7 56
2019-10-29 11:00:00 17.5 7 Oeste 21 Oeste 0 951.3 1.6 67
2019-10-29 10:00:00 14.7 3 Nordeste 7 Nordeste 0 950.9 1.6 84
2019-10-29 09:00:00 12.1 4 Norte 9 Nordeste 0 950.6 1.5 89
2019-10-29 08:00:00 10.9 2 Este 10 Norte 0 949.7 0.7 92
2019-10-29 07:00:00 11 0 Calma 6 Sur 0 949.3 0.2 91
2019-10-29 06:00:00 10.5 2 Este 7 Sudeste 0 949.1 0 91
2019-10-29 05:00:00 9.8 4 Nordeste 9 Nordeste 0 949 -0.1 91
2019-10-29 04:00:00 9.8 2 Noroeste 6 Este 0 949.1 -0.2 90
2019-10-29 03:00:00 9.9 2 Nordeste 7 Norte 0 949.1 -0.1 89
2019-10-29 02:00:00 10.1 3 Este 6 Nordeste 0 949.1 -0.3 87
2019-10-29 01:00:00 10.9 0 Calma 7 Sudoeste 0 949.3 0.1 85
2019-10-29 00:00:00 11.5 4 Nordeste 9 Norte 0 949.2 0.1 84
2019-10-28 23:00:00 12.3 0 Calma 6 Norte 0 949.4 0.5 80
2019-10-28 22:00:00 13.8 3 Nordeste 9 Oeste 0 949.2 0.4 73
2019-10-28 21:00:00 16.4 2 Oeste 16 Oeste 0 949.1 0.7 61
2019-10-28 20:00:00 16.3 3 Noroeste 17 Sudoeste 0 948.9 0.6 60
2019-10-28 19:00:00 17.8 4 Oeste 15 Sudoeste 0 948.8 0.5 54
2019-10-28 18:00:00 19.9 4 Oeste 21 Sudoeste 0 948.4 -0.2 50
2019-10-28 17:00:00 21.1 6 Sudoeste 52 Noroeste 0 948.3 -0.8 46
2019-10-28 16:00:00 22.7 4 Sur 17 Sudoeste 0 948.3 -1.3 42
2019-10-28 15:00:00 23.9 10 Sudoeste 27 Sudoeste 0 948.6 -1.8 34
2019-10-28 14:00:00 24.3 12 Sudoeste 23 Sudoeste 0 949.1 -1.5 33
2019-10-28 13:00:00 23.1 6 Sur 13 Sur 0 949.6 -1.3 39
2019-10-28 12:00:00 19.7 4 Nordeste 10 Nordeste 0 950.4 -0.1 55
2019-10-28 11:00:00 15.5 4 Nordeste 10 Norte 0 950.6 0.5 74
2019-10-28 10:00:00 11.8 0 Calma 9 Oeste 0 950.9 0.5 91
2019-10-28 09:00:00 11.2 0 Calma 6 Este 0 950.5 0 91
2019-10-28 08:00:00 10.8 3 Este 6 Sudeste 0 950.1 -0.3 91
2019-10-28 07:00:00 10.8 4 Sudoeste 7 Norte 0 950.4 -0.4 90
2019-10-28 06:00:00 10.9 3 Norte 6 Oeste 0 950.5 -0.6 90
2019-10-28 05:00:00 10.8 5 Nordeste 9 Nordeste 0 950.4 -1.1 89
2019-10-28 04:00:00 10.9 0 Calma 9 Nordeste 0 950.8 -1.1 88
2019-10-28 03:00:00 11.4 2 Noroeste 14 Sudoeste 0 951.1 -0.9 86
2019-10-28 02:00:00 11.3 4 Nordeste 13 Norte 0 951.5 -0.6 87
2019-10-28 01:00:00 10.9 3 Oeste 9 Este 0 951.9 -0.2 88
2019-10-28 00:00:00 11.5 2 Nordeste 10 Nordeste 0 952 -0.3 85
2019-10-27 23:00:00 12.3 4 Nordeste 9 Nordeste 0 952.1 -0.1 83
2019-10-27 22:00:00 13.9 2 Norte 17 Sur 0 952.1 0 75
2019-10-27 21:00:00 15.8 10 Sur 22 Sudeste 0 952.3 0.6 66
2019-10-27 20:00:00 15.8 8 Sudeste 21 Sudeste 0 952.2 0.5 69
2019-10-27 19:00:00 16.4 3 Sur 17 Sudeste 0 952.1 0.4 65
2019-10-27 18:00:00 17.3 8 Sur 18 Sudeste 0 951.7 -0.5 63
2019-10-27 17:00:00 19.3 6 Sur 52 Sudeste 0 951.7 -0.9 57
2019-10-27 16:00:00 19.4 9 Sudeste 20 Sudeste 0 951.7 -1.8 57
2019-10-27 15:00:00 19.4 8 Sur 16 Sur 0 952.2 -2.1 55
2019-10-27 14:00:00 18.1 8 Sur 18 Sur 0 952.6 -2.1 59
2019-10-27 13:00:00 18.3 9 Sur 18 Sur 0 953.5 -1.5 59
2019-10-27 12:00:00 15.9 6 Sudeste 12 Sudeste 0 954.3 -0.5 68
2019-10-27 11:00:00 13.4 2 Sudeste 6 Noroeste 0 954.7 0.6 75
2019-10-27 10:00:00 10.1 2 Oeste 14 Sudoeste 0 955 1.1 87
2019-10-27 09:00:00 8.5 0 Calma 4 Norte 0 954.8 1.2 91
2019-10-27 08:00:00 6.2 2 Nordeste 4 Nordeste 0 954.1 0.6 93
2019-10-27 07:00:00 6.3 0 Calma 3 Norte 0 953.9 0.3 92
2019-10-27 06:00:00 6.8 0 Calma 8 Nordeste 0 953.6 -0.1 93
2019-10-27 05:00:00 6.3 3 Nordeste 4 Nordeste 0 953.5 -0.3 92
2019-10-27 04:00:00 6.2 0 Calma 6 Nordeste 0 953.6 0 92
2019-10-27 03:00:00 6.5 0 Calma 6 Norte 0 953.7 0.1 90
2019-10-27 02:00:00 7.4 4 Norte 9 Nordeste 0 953.8 0.3 90
2019-10-27 01:00:00 8.5 4 Nordeste 10 Nordeste 0 953.6 0.3 86
2019-10-27 00:00:00 9.7 4 Nordeste 11 Oeste 0 953.5 0.9 83
2019-10-26 23:00:00 10.7 4 Este 7 Oeste 0 953.3 1.1 81
2019-10-26 22:00:00 11.5 3 Nordeste 7 Norte 0 953.3 1.4 76
2019-10-26 21:00:00 13 3 Nordeste 9 Nordeste 0 952.6 1.2 70
2019-10-26 20:00:00 15.1 2 Nordeste 17 Sur 0 952.2 0.8 62
2019-10-26 19:00:00 19.5 0 Calma 12 Sudoeste 0 951.9 0.3 49
2019-10-26 18:00:00 23.4 4 Sudoeste 19 Sudoeste 0 951.4 -0.6 33
2019-10-26 17:00:00 24 7 Sudoeste 25 Sudoeste 0 951.4 -1.5 31
2019-10-26 16:00:00 23.8 8 Oeste 23 Sudoeste 0 951.6 -2 30
2019-10-26 15:00:00 23.6 10 Oeste 27 Oeste 0 952 -2 32
2019-10-26 14:00:00 21.6 10 Sudeste 21 Sudeste 0 952.9 -1.2 44
2019-10-26 13:00:00 19.8 8 Sudeste 17 Sudeste 0 953.6 -0.2 49
2019-10-26 12:00:00 15.2 2 Nordeste 7 Noroeste 0 954 0.6 65
2019-10-26 11:00:00 11.5 0 Calma 6 Noroeste 0 954.1 0.9 79
2019-10-26 10:00:00 6.8 0 Calma 6 Norte 0 953.8 0.9 93
2019-10-26 09:00:00 3.6 0 Calma 5 Nordeste 0 953.4 0.5 93
2019-10-26 08:00:00 3.9 2 Norte 9 Norte 0 953.2 0.1 93
2019-10-26 07:00:00 4.1 2 Nordeste 6 Nordeste 0 952.9 -0.5 92
2019-10-26 06:00:00 4.6 2 Nordeste 7 Nordeste 0 952.9 -0.6 92
2019-10-26 05:00:00 5 3 Nordeste 7 Sudoeste 0 953.1 -0.5 92
2019-10-26 04:00:00 5.5 0 Calma 6 Nordeste 0 953.4 -0.4 92
2019-10-26 03:00:00 6 0 Calma 5 Sudeste 0 953.5 -0.7 91
2019-10-26 02:00:00 6.8 2 Este 7 Sudeste 0 953.6 -0.6 90
2019-10-26 01:00:00 7.7 3 Este 10 Nordeste 0 953.8 -0.4 89
2019-10-26 00:00:00 8.1 5 Norte 11 Nordeste 0 954.2 0.2 89
2019-10-25 23:00:00 8.9 2 Norte 7 Sur 0 954.2 0.2 87
2019-10-25 22:00:00 10.2 2 Noroeste 6 Oeste 0 954.2 0.6 83
2019-10-25 21:00:00 12.2 0 Calma 8 Sudeste 0 954 0.3 74
2019-10-25 20:00:00 14.4 5 Sudeste 12 Sur 0 954 0.1 65
2019-10-25 19:00:00 17.6 6 Oeste 22 Sudoeste 0 953.6 -0.3 54
2019-10-25 18:00:00 19.4 13 Sudoeste 26 Oeste 0 953.7 -0.7 43
2019-10-25 17:00:00 20.2 11 Oeste 28 Oeste 0 953.9 -1.3 38
2019-10-25 16:00:00 20.5 10 Oeste 29 Oeste 0 953.9 -2.1 42
2019-10-25 15:00:00 20.3 8 Sur 30 Nordeste 0 954.4 -1.9 53
2019-10-25 14:00:00 18.7 5 Oeste 17 Sudoeste 0 955.2 -1.5 56
2019-10-25 13:00:00 17.4 10 Oeste 20 Noroeste 0 956 -0.5 60
2019-10-25 12:00:00 16.1 6 Oeste 14 Oeste 0 956.3 0 63
2019-10-25 11:00:00 14.3 4 Norte 9 Norte 0 956.7 0.7 70
2019-10-25 10:00:00 12.3 4 Este 6 Este 0 956.5 0.4 82
2019-10-25 09:00:00 10.1 3 Sur 8 Sudeste 0 956.3 0.4 89
2019-10-25 08:00:00 11.3 3 Este 19 Oeste 0 956 0.1 85
2019-10-25 07:00:00 11 5 Nordeste 9 Nordeste 0 956.1 0.3 89
2019-10-25 06:00:00 10.1 0 Calma 6 Sudeste 0 955.9 0.3 93
2019-10-25 05:00:00 9.7 0 Calma 9 Nordeste 0 955.9 0 92
2019-10-25 04:00:00 10 2 Este 7 Sur 0 955.8 0.1 92
2019-10-25 03:00:00 10.4 2 Norte 8 Nordeste 0 955.6 0.1 93
2019-10-25 02:00:00 10.2 2 Noroeste 7 Nordeste 0 955.9 1 91
2019-10-25 01:00:00 10.9 3 Este 6 Nordeste 0 955.7 1 89
2019-10-25 00:00:00 11.6 2 Sur 10 Nordeste 0 955.5 1.5 87
2019-10-24 23:00:00 11.8 5 Nordeste 8 Nordeste 0 954.9 1.5 86
2019-10-24 22:00:00 12 0 Calma 5 Nordeste 0 954.7 2 85
2019-10-24 21:00:00 12 3 Nordeste 7 Sudeste 0 954 2 82
2019-10-24 20:00:00 13.1 2 Sudoeste 16 Sudoeste 0 953.4 1.8 76
2019-10-24 19:00:00 14.8 3 Oeste 12 Sudoeste 0 952.7 1.7 68
2019-10-24 18:00:00 14.1 6 Sudeste 15 Sudeste 0 952 1 70
2019-10-24 17:00:00 13.5 3 Sudeste 16 Sudeste 0 951.6 0.7 70
2019-10-24 16:00:00 12.9 7 Sudeste 14 Este 0 951 0.9 72
2019-10-24 15:00:00 12.5 4 Nordeste 9 Nordeste 0 951 0.6 75
2019-10-24 14:00:00 12.6 3 Este 13 Sudeste 0 950.9 1.4 68
2019-10-24 13:00:00 10.2 5 Sudeste 12 Norte 0.6 950.1 1.7 80
2019-10-24 12:00:00 9.6 4 Nordeste 8 Norte 0 950.4 2.7 80
2019-10-24 11:00:00 8.9 3 Sudoeste 8 Sudoeste 0 949.5 2.1 82
2019-10-24 10:00:00 8 2 Oeste 9 Nordeste 0 948.4 2 85
2019-10-24 09:00:00 7.6 4 Norte 16 Oeste 0 947.7 1.7 85
2019-10-24 08:00:00 7 2 Norte 9 Este 0 947.4 1.7 90
2019-10-24 07:00:00 7.2 3 Este 10 Sudoeste 1 946.4 1.1 87
2019-10-24 06:00:00 7.5 5 Sur 16 Sudoeste 0.8 946 1.1 84
2019-10-24 05:00:00 7.5 4 Sudoeste 15 Sudoeste 0.8 945.7 1 86
2019-10-24 04:00:00 7.6 5 Sur 23 Sur 1.6 945.3 0.8 88
2019-10-24 03:00:00 7.9 5 Sudoeste 21 Sudoeste 2.6 944.9 1.1 84
2019-10-24 02:00:00 8.1 5 Oeste 19 Noroeste 2.4 944.7 1.7 84
2019-10-24 01:00:00 8.4 3 Oeste 29 Oeste 3 944.5 2.1 84
2019-10-24 00:00:00 8.9 9 Oeste 26 Oeste 3 943.8 1.9 82
2019-10-23 23:00:00 9.3 9 Oeste 30 Noroeste 1.2 943 1.9 82
2019-10-23 22:00:00 10.1 6 Oeste 24 Sudoeste 0 942.4 1.7 78
2019-10-23 21:00:00 10.7 11 Noroeste 27 Oeste 0 941.9 1.6 76
2019-10-23 20:00:00 10.9 3 Sudoeste 7 Nordeste 0.8 941.1 1.5 89
2019-10-23 19:00:00 11.3 3 Noroeste 16 Oeste 0.2 940.7 1.5 84
2019-10-23 18:00:00 12.2 5 Oeste 14 Noroeste 0.4 940.3 1.5 86
2019-10-23 17:00:00 12.4 3 Sudoeste 13 Oeste 3.4 939.6 0.6 87
2019-10-23 16:00:00 13.7 6 Noroeste 17 Sudoeste 0 939.2 0.4 78
2019-10-23 15:00:00 14.6 8 Oeste 23 Oeste 0 938.8 -0.4 71
2019-10-23 14:00:00 15.1 3 Sur 10 Norte 0 939 -0.4 72
2019-10-23 13:00:00 14.6 3 Norte 9 Noroeste 0 938.8 -0.2 74
2019-10-23 12:00:00 13.5 5 Sudoeste 9 Oeste 0 939.2 -0.1 83
2019-10-23 11:00:00 12.7 2 Este 10 Norte 0 939.4 0.4 86
2019-10-23 10:00:00 12.1 2 Norte 5 Noroeste 0 939 0.3 92
2019-10-23 09:00:00 11.2 2 Nordeste 6 Sudoeste 0 939.3 0 91
2019-10-23 08:00:00 11.4 3 Sur 17 Norte 0 939 -0.8 89
2019-10-23 07:00:00 11.5 9 Norte 35 Nordeste 0 938.7 -1.4 89
2019-10-23 06:00:00 11.7 10 Nordeste 26 Este 0.2 939.3 -1.8 89
2019-10-23 05:00:00 10.1 0 Calma 8 Nordeste 0 939.8 -2.2 92
2019-10-23 04:00:00 9.6 2 Sur 8 Oeste 0.2 940.1 -2.4 91
2019-10-23 03:00:00 10 4 Noroeste 16 Norte 0.4 941.1 -2.8 90
2019-10-23 02:00:00 9.9 2 Oeste 15 Norte 0 942 -2 86
2019-10-23 01:00:00 9.9 9 Norte 23 Norte 0 942.5 -2.3 86
2019-10-23 00:00:00 9.4 4 Oeste 24 Norte 0 943.9 -1.3 86
2019-10-22 23:00:00 8.8 3 Oeste 14 Norte 0.2 944 -2.2 89
2019-10-22 22:00:00 9 9 Norte 28 Nordeste 0 944.8 -1.8 84
2019-10-22 21:00:00 8.4 4 Noroeste 32 Norte 0 945.2 -1.3 86
2019-10-22 20:00:00 8.8 11 Norte 41 Nordeste 1.4 946.2 -1.5 84
2019-10-22 19:00:00 9.1 9 Nordeste 26 Norte 1.2 946.6 -2.1 85
2019-10-22 18:00:00 9.6 10 Norte 25 Norte 0.4 946.5 -2.9 85
2019-10-22 17:00:00 9.8 8 Norte 18 Norte 0.4 947.7 -2.7 85
2019-10-22 16:00:00 9.9 4 Norte 20 Nordeste 0.8 948.7 -2.6 84
2019-10-22 15:00:00 10.8 12 Nordeste 28 Nordeste 0 949.4 -2.2 76
2019-10-22 14:00:00 10.6 3 Nordeste 11 Norte 0 950.4 -1.6 84
2019-10-22 13:00:00 8.1 2 Nordeste 5 Nordeste 0.2 951.3 -1 90
2019-10-22 12:00:00 7 3 Noroeste 7 Norte 0 951.6 -0.5 90
2019-10-22 11:00:00 5.3 0 Calma 6 Oeste 0 952 -0.5 93
2019-10-22 10:00:00 4.2 3 Norte 9 Norte 0 952.3 -0.2 94
2019-10-22 09:00:00 3.3 3 Noroeste 8 Nordeste 0 952.1 -0.7 94
2019-10-22 08:00:00 2.9 0 Calma 5 Sudeste 0 952.5 -0.5 94
2019-10-22 07:00:00 2.7 0 Calma 5 Oeste 0 952.5 0 94
2019-10-22 06:00:00 2 3 Oeste 5 Oeste 0 952.8 0 93
2019-10-22 05:00:00 2.2 3 Nordeste 6 Nordeste 0 953 -0.1 93
2019-10-22 04:00:00 2.9 0 Calma 5 Este 0 952.5 -0.6 92
2019-10-22 03:00:00 3.6 2 Sudoeste 8 Norte 0 952.8 -0.4 92
2019-10-22 02:00:00 4.2 3 Norte 8 Nordeste 0 953.1 -0.1 92
2019-10-22 01:00:00 4.9 0 Calma 7 Oeste 0 953.1 0.4 91
2019-10-22 00:00:00 6 5 Noroeste 8 Oeste 0 953.2 0.9 90
2019-10-21 23:00:00 7 3 Sur 13 Nordeste 0 953.2 1.4 87
2019-10-21 22:00:00 8.2 3 Sudoeste 13 Sudoeste 0 952.7 1.6 83
2019-10-21 21:00:00 9.4 5 Norte 11 Oeste 0 952.3 1.5 80
2019-10-21 20:00:00 9.8 2 Oeste 20 Nordeste 0 951.8 1.1 78
2019-10-21 19:00:00 11.4 4 Nordeste 13 Este 0 951.1 0.1 68
2019-10-21 18:00:00 13.2 3 Noroeste 8 Sudoeste 0 950.8 -0.7 57
2019-10-21 17:00:00 13.2 4 Sur 10 Sur 0 950.7 -1.2 60
2019-10-21 16:00:00 13.7 4 Sudoeste 11 Sur 0 951 -1.3 57
2019-10-21 15:00:00 11.1 4 Norte 11 Sudoeste 0 951.5 -0.8 70
2019-10-21 14:00:00 10.3 4 Sur 12 Sudeste 0 951.9 -0.5 74
2019-10-21 13:00:00 8.5 3 Este 8 Norte 0 952.3 0.3 82
2019-10-21 12:00:00 7 3 Nordeste 9 Norte 0 952.3 1.1 92
2019-10-21 11:00:00 5.3 0 Calma 5 Norte 0 952.4 1.5 94
2019-10-21 10:00:00 3.8 0 Calma 4 Este 0 952 1.4 94
2019-10-21 09:00:00 2.3 0 Calma 6 Sudeste 0 951.2 1.1 94
2019-10-21 08:00:00 2.1 3 Sur 5 Sudeste 0 950.9 1.3 93
2019-10-21 07:00:00 2.1 3 Nordeste 7 Nordeste 0 950.6 0.8 93
2019-10-21 06:00:00 3 0 Calma 6 Sudeste 0 950.1 0.6 93
2019-10-21 05:00:00 3.2 0 Calma 5 Nordeste 0 949.6 0.3 93
2019-10-21 04:00:00 3.6 3 Nordeste 7 Nordeste 0 949.8 0.8 93
2019-10-21 03:00:00 4.7 0 Calma 9 Sudeste 0 949.5 0.7 92
2019-10-21 02:00:00 4.6 0 Calma 5 Sur 0 949.3 0.8 91
2019-10-21 01:00:00 5.7 2 Norte 6 Este 0 949 1.2 91
2019-10-21 00:00:00 6.2 2 Oeste 6 Este 0 948.8 1.6 89
2019-10-20 23:00:00 6.9 0 Calma 8 Oeste 0 948.5 2 89
2019-10-20 22:00:00 7.3 2 Oeste 6 Oeste 0 947.8 2.1 88
2019-10-20 21:00:00 7.9 3 Sudoeste 9 Sudoeste 0 947.2 2.1 84
2019-10-20 20:00:00 8.3 3 Sudoeste 17 Oeste 0.2 946.5 2.2 86
2019-10-20 19:00:00 8.4 0 Calma 10 Oeste 0.6 945.7 2.1 86
2019-10-20 18:00:00 8.5 5 Noroeste 22 Noroeste 1.6 945.1 1.7 84
2019-10-20 17:00:00 9.7 4 Oeste 16 Noroeste 0.2 944.3 1.1 81
2019-10-20 16:00:00 10.1 4 Oeste 12 Noroeste 0 943.6 0.8 79
2019-10-20 15:00:00 10.1 5 Oeste 17 Oeste 0.2 943.4 0.9 80
2019-10-20 14:00:00 10 5 Oeste 15 Sudoeste 0 943.2 1.3 79
2019-10-20 13:00:00 9.9 5 Oeste 17 Sudoeste 0.6 942.8 1.8 82
2019-10-20 12:00:00 8.6 9 Oeste 18 Sudoeste 2.2 942.5 2.7 87
2019-10-20 11:00:00 8.7 4 Oeste 12 Oeste 0.4 941.9 2.9 87
2019-10-20 10:00:00 8.9 2 Oeste 10 Oeste 2.8 941 2.9 89
2019-10-20 09:00:00 8.8 5 Oeste 16 Oeste 5.2 939.8 2.5 90
2019-10-20 08:00:00 9.6 3 Sudoeste 11 Oeste 3.6 939 2 90
2019-10-20 07:00:00 10 4 Oeste 12 Oeste 1.2 938.1 1.4 91
2019-10-20 06:00:00 10.2 0 Calma 7 Nordeste 0 937.3 0.3 91
2019-10-20 05:00:00 10.2 4 Sudoeste 11 Oeste 0 937 0.4 91
2019-10-20 04:00:00 10.4 2 Sudoeste 15 Sudoeste 0.2 936.7 0.4 92
2019-10-20 03:00:00 10.6 2 Oeste 9 Norte 1.2 937 0.6 92
2019-10-20 02:00:00 10.7 4 Noroeste 19 Sudoeste 0.8 936.6 -0.7 92
2019-10-20 01:00:00 10.8 2 Oeste 17 Sudoeste 1.8 936.3 -0.6 92
2019-10-20 00:00:00 11.1 5 Noroeste 12 Sudeste 4.2 936.4 -0.7 91
2019-10-19 23:00:00 11.5 5 Sudeste 14 Norte 2 937.3 0.2 88
2019-10-19 22:00:00 13 5 Noroeste 33 Sur 0.6 936.9 0.1 82
2019-10-19 21:00:00 13 10 Sur 26 Sudoeste 1.6 937.1 -0.4 81
2019-10-19 20:00:00 12.7 5 Este 9 Nordeste 1.6 937.1 -0.5 86
2019-10-19 19:00:00 13.3 3 Norte -- -- 0.6 936.8 -1.2 82
2019-10-19 18:00:00 14.6 8 Sur 46 Sur 0.2 937.5 -1.5 71
2019-10-19 17:00:00 16 15 Sur 42 Sur 0 937.6 -2.6 54
2019-10-19 16:00:00 16.2 13 Sur 29 Sur 0 938 -2.7 54
2019-10-19 15:00:00 16.6 6 Sur 37 Oeste 0 939 -2.5 51
2019-10-19 14:00:00 16.1 12 Sur 34 Sur 0 940.2 -1.4 57
2019-10-19 13:00:00 17.2 15 Sudoeste 42 Sudoeste 0 940.7 -1.1 52
2019-10-19 12:00:00 13.9 12 Sur 26 Sur 0 941.5 -0.5 68
2019-10-19 11:00:00 14.1 11 Sur 30 Sudoeste 0 941.6 -0.4 63
2019-10-19 10:00:00 13.9 9 Sudoeste 19 Sudoeste 0 941.8 -0.5 63
2019-10-19 09:00:00 13.5 7 Sudoeste 23 Sudoeste 0 942 -0.7 65
2019-10-19 08:00:00 13.4 8 Sudoeste 23 Sudoeste 0 942 -0.7 64
2019-10-19 07:00:00 13.5 8 Sudoeste 23 Sudoeste 0 942.3 -1.3 66
2019-10-19 06:00:00 13.7 6 Sudoeste 26 Sudoeste 0 942.7 -0.8 65
2019-10-19 05:00:00 13.7 7 Sudoeste 26 Oeste 0 942.7 -1.8 64
2019-10-19 04:00:00 13.8 11 Sudoeste 28 Sudoeste 0 943.6 -1.4 65
2019-10-19 03:00:00 13.7 9 Sudoeste 20 Sur 0 943.5 -1.4 64
2019-10-19 02:00:00 14.1 8 Sudoeste 22 Sudoeste 0 944.5 -0.4 62
2019-10-19 01:00:00 14.1 6 Sudoeste 26 Oeste 0 945 -0.3 61
2019-10-19 00:00:00 14.7 10 Sudoeste 26 Sudoeste 0 944.9 -0.7 58
2019-10-18 23:00:00 15 8 Sudoeste 23 Sudoeste 0 944.9 -0.6 58
2019-10-18 22:00:00 14.8 4 Sudoeste 24 Oeste 0 945.3 -0.8 59
2019-10-18 21:00:00 15.1 8 Sur 18 Sudoeste 0 945.6 -0.7 58
2019-10-18 20:00:00 15.5 6 Sudoeste 21 Oeste 0 945.5 -1 55
2019-10-18 19:00:00 16.1 5 Sudoeste 23 Sur 0 946.1 -0.9 48
2019-10-18 18:00:00 16.8 9 Sudoeste 30 Oeste 0 946.3 -1.2 45
2019-10-18 17:00:00 17.5 9 Sudoeste 26 Sudoeste 0 946.5 -1.5 40
2019-10-18 16:00:00 18.5 10 Sudoeste 29 Sur 0 947 -1.9 39
2019-10-18 15:00:00 18.7 10 Sudoeste 25 Sudoeste 0 947.5 -1.8 42
2019-10-18 14:00:00 19.1 7 Sudeste 16 Sudeste 0 948 -1.6 49
2019-10-18 13:00:00 18 4 Sur 12 Sudeste 0 948.9 -0.5 56
2019-10-18 12:00:00 16.5 3 Norte 15 Nordeste 0 949.3 0.5 67
2019-10-18 11:00:00 14.2 5 Nordeste 13 Norte 0 949.6 1 78
2019-10-18 10:00:00 13 7 Norte 16 Norte 0 949.4 1.2 85
2019-10-18 09:00:00 13.2 7 Norte 13 Norte 0 948.8 1 85
2019-10-18 08:00:00 13 4 Noroeste 12 Noroeste 0 948.6 1.4 88
2019-10-18 07:00:00 13.1 4 Noroeste 13 Noroeste 0 948.2 0.6 88
2019-10-18 06:00:00 13.3 6 Noroeste 15 Norte 0 947.8 0.4 86
2019-10-18 05:00:00 13.8 2 Sudoeste 13 Nordeste 0 947.2 -0.6 85
2019-10-18 04:00:00 14.5 5 Nordeste 10 Norte 0 947.6 -0.3 83
2019-10-18 03:00:00 14.7 2 Nordeste 6 Norte 0 947.4 -0.8 81
2019-10-18 02:00:00 14.9 0 Calma 17 Sudoeste 0 947.8 -0.5 76
2019-10-18 01:00:00 14.7 4 Sur 21 Sudoeste 0 947.9 0 76
2019-10-18 00:00:00 14.6 0 Calma 13 Oeste 0 948.2 0.3 74
2019-10-17 23:00:00 15.3 2 Este 10 Norte 0 948.3 0.6 70
2019-10-17 22:00:00 16.9 6 Oeste 19 Sur 0 947.9 0.4 63
2019-10-17 21:00:00 17 3 Sudoeste 19 Sudoeste 0 947.9 0.7 56
2019-10-17 20:00:00 18.2 5 Sudoeste 32 Sur 0 947.7 0.3 48
2019-10-17 19:00:00 19.6 12 Sudoeste 34 Oeste 0 947.5 0 44
2019-10-17 18:00:00 21.3 13 Sudoeste 36 Sudoeste 0 947.2 -0.7 35
2019-10-17 17:00:00 21.2 11 Sudoeste 33 Sudoeste 0 947.4 -1.2 44
2019-10-17 16:00:00 20.3 10 Oeste 32 Sudoeste 0 947.5 -1.4 48
2019-10-17 15:00:00 20.1 12 Oeste 30 Sudoeste 0.2 947.9 -1 51
2019-10-17 14:00:00 18.2 10 Sur 33 Sudoeste 0 948.6 -0.2 62
2019-10-17 13:00:00 17.2 12 Sudoeste 33 Sudoeste 0 948.9 0.1 65
2019-10-17 12:00:00 16.2 10 Sudoeste 23 Sudoeste 0 948.9 0.6 67
2019-10-17 11:00:00 15.2 7 Sur 17 Sudeste 0 948.8 1.1 72
2019-10-17 10:00:00 14.3 6 Sudoeste 22 Sudeste 0 948.8 1.1 75
2019-10-17 09:00:00 13.7 3 Sudoeste 17 Sur 0 948.3 0.7 77
2019-10-17 08:00:00 13.6 3 Sudeste 13 Oeste 0 947.7 -0.3 76
2019-10-17 07:00:00 13.5 8 Sudoeste 19 Sudoeste 0 947.7 -0.6 77
2019-10-17 06:00:00 13.5 3 Sudoeste 23 Oeste 0.2 947.6 -1.1 77
2019-10-17 05:00:00 13.8 4 Sudoeste 21 Sudoeste 0 948 -1 75
2019-10-17 04:00:00 14.2 5 Oeste 16 Sudoeste 0 948.3 -0.9 73
2019-10-17 03:00:00 14.2 5 Sudoeste 26 Oeste 0 948.7 -0.6 75
2019-10-17 02:00:00 14.2 2 Noroeste 19 Noroeste 0.2 949 -0.2 78
2019-10-17 01:00:00 14.4 6 Sudoeste 15 Sudoeste 0 949.2 0.3 75
2019-10-17 00:00:00 14.6 3 Sur 16 Sudoeste 0 949.3 0.2 73
2019-10-16 23:00:00 13.7 3 Este 8 Noroeste 0 949.2 0.2 82
2019-10-16 22:00:00 13.6 2 Norte 7 Este 0 948.9 0.1 83
2019-10-16 21:00:00 14.3 2 Este 9 Oeste 0.4 949.1 0.6 79
2019-10-16 20:00:00 15.9 5 Nordeste 24 Sudoeste 0 949 0.3 58
2019-10-16 19:00:00 16.7 4 Oeste 36 Oeste 0 948.8 -0.3 54
2019-10-16 18:00:00 18.2 14 Sudoeste 37 Oeste 0 948.5 -1 48
2019-10-16 17:00:00 16.7 14 Sudoeste 40 Sudoeste 0 948.7 -1.1 54
2019-10-16 16:00:00 16.7 10 Sudoeste 38 Oeste 0 949.1 -1 54
2019-10-16 15:00:00 17.6 17 Sudoeste 42 Oeste 0 949.5 -0.8 49
2019-10-16 14:00:00 16.5 13 Sudoeste 37 Sudoeste 0 949.8 -1.1 55
2019-10-16 13:00:00 15.2 14 Sudoeste 37 Oeste 0 950.1 -0.5 55
2019-10-16 12:00:00 13.6 9 Sudoeste 28 Sudoeste 0 950.3 0.1 63
2019-10-16 11:00:00 13.1 11 Sudoeste 24 Sudoeste 0 950.9 1.3 67
2019-10-16 10:00:00 12.5 8 Sudoeste 26 Sur 0 950.6 0.9 69
2019-10-16 09:00:00 12.6 10 Sudoeste 42 Sudoeste 0 950.2 0.3 65
2019-10-16 08:00:00 12.5 13 Sudoeste 28 Sudoeste 0 949.6 -0.5 63
2019-10-16 07:00:00 12.5 9 Sudoeste 31 Sudoeste 0 949.7 -0.7 57
2019-10-16 06:00:00 12.4 13 Sudoeste 39 Oeste 0 949.9 -0.7 63
2019-10-16 05:00:00 12.3 8 Sudoeste 31 Oeste 0 950.1 -1 64
2019-10-16 04:00:00 12.8 12 Sudoeste 37 Oeste 0 950.4 -0.7 66
2019-10-16 03:00:00 13.1 9 Oeste 31 Oeste 0 950.6 -0.5 64
2019-10-16 02:00:00 13.1 10 Sudoeste 31 Sudoeste 0 951.1 -0.4 63
2019-10-16 01:00:00 13 4 Sudoeste 18 Oeste 0 951.1 -0.4 60
2019-10-16 00:00:00 12.9 5 Norte 21 Noroeste 0 951.1 -0.4 60
2019-10-15 23:00:00 12.8 4 Noroeste 20 Oeste 0 951.5 0 60
2019-10-15 22:00:00 13.5 6 Oeste 27 Oeste 0 951.5 0.4 58
2019-10-15 21:00:00 13.3 6 Oeste 23 Sur 0 951.5 0.6 57
2019-10-15 20:00:00 13.5 6 Sudoeste 34 Sudoeste 0 951.5 0.4 52
2019-10-15 19:00:00 14.5 9 Sudoeste 32 Sudoeste 0 951.1 0.1 50
2019-10-15 18:00:00 15.1 14 Sudoeste 31 Sudoeste 0 950.9 -0.5 47
2019-10-15 17:00:00 16.7 10 Sudoeste 35 Sudoeste 0 951.1 -0.6 40
2019-10-15 16:00:00 16.7 14 Sudoeste 34 Sudoeste 0 951 -0.7 40
2019-10-15 15:00:00 16.4 12 Sudoeste 35 Sudoeste 0 951.4 -0.6 41
2019-10-15 14:00:00 15.7 12 Sudoeste 31 Sudoeste 0 951.7 -0.1 43
2019-10-15 13:00:00 14.8 11 Sudoeste 32 Sudoeste 0.2 951.7 0.1 47
2019-10-15 12:00:00 14 6 Sur 17 Sudoeste 0 952 0.9 51
2019-10-15 11:00:00 11.5 7 Oeste 17 Sudoeste 0 951.8 1.3 60
2019-10-15 10:00:00 9.6 5 Oeste 17 Oeste 0 951.6 1.4 67
2019-10-15 09:00:00 7.2 7 Oeste 18 Oeste 0 951.1 1.5 74
2019-10-15 08:00:00 6.9 5 Norte 13 Sudeste 0 950.5 1.4 74
2019-10-15 07:00:00 6.7 4 Norte 14 Nordeste 0 950.2 1.2 77
2019-10-15 06:00:00 7 4 Noroeste 12 Este 0 949.6 1 79
2019-10-15 05:00:00 6.6 4 Norte 17 Sudoeste 0 949.1 0.6 83
2019-10-15 04:00:00 6.7 2 Sur 7 Sudoeste 0 949 1.3 86
2019-10-15 03:00:00 7.8 4 Sudoeste 21 Sudoeste 1.6 948.6 1.5 83
2019-10-15 02:00:00 9.3 4 Noroeste 9 Noroeste 1 948.5 1.8 85
2019-10-15 01:00:00 9.7 0 Calma 6 Sur 0.2 947.7 1.7 84
2019-10-15 00:00:00 9.7 3 Sur 13 Noroeste 0.2 947.1 2.2 82
2019-10-14 23:00:00 10.2 10 Noroeste 20 Noroeste 0 946.7 2.4 75
2019-10-14 22:00:00 11 6 Noroeste 42 Sudoeste 0 946 2.7 64
2019-10-14 21:00:00 13.3 13 Sudoeste 33 Sur 0 944.9 1.9 52
2019-10-14 20:00:00 13.8 8 Sudoeste 33 Sudoeste 0 944.3 1.3 60
2019-10-14 19:00:00 14.2 3 Noroeste 40 Oeste 0 943.3 0.9 52
2019-10-14 18:00:00 14.7 18 Sudoeste 61 Sudoeste 0 943 0.6 49
2019-10-14 17:00:00 17.4 17 Sudoeste 57 Sudoeste 0 943 0.5 42
2019-10-14 16:00:00 19.7 23 Sudoeste 52 Oeste 0 942.4 0 36
2019-10-14 15:00:00 18.7 22 Sudoeste 55 Sudoeste 0 942.4 0.6 39
2019-10-14 14:00:00 18.4 22 Sudoeste 57 Oeste 0 942.5 0.8 42
2019-10-14 13:00:00 17.1 21 Sudoeste 66 Sur 0.2 942.4 2.5 56
2019-10-14 12:00:00 17.9 17 Sudoeste 57 Sudoeste 0.2 941.8 1.7 55
2019-10-14 11:00:00 18.2 19 Sudoeste 51 Sudoeste 0 941.7 2 55
2019-10-14 10:00:00 21 16 Sur 41 Sur 0 939.9 -0.2 42
2019-10-14 09:00:00 20.1 12 Sur 32 Sur 0 940.1 -0.1 44
2019-10-14 08:00:00 20.6 13 Sur 55 Sur 0.2 939.7 -0.7 41
2019-10-14 07:00:00 21.2 17 Sur 57 Sur 0 940.1 -1.1 40
2019-10-14 06:00:00 21.9 15 Sur 62 Sudeste 0 940.2 -2.2 35
2019-10-14 05:00:00 21.6 17 Sur 50 Sudeste 0 940.4 -2.4 34
2019-10-14 04:00:00 21 15 Sur 56 Sudeste 0 941.2 -2.6 36
2019-10-14 03:00:00 21.3 12 Sur 48 Sudoeste 0 942.4 -2.3 37
2019-10-14 02:00:00 21.2 18 Sur 57 Sur 0 942.8 -2.1 34
2019-10-14 01:00:00 20.8 15 Sudoeste 60 Sudoeste 0 943.8 -1.1 33
2019-10-14 00:00:00 20.5 8 Sur 51 Sur 0 944.7 0 36